Time;durP1;ratioP1;P1;durP2;ratioP2;P2;SDS_P1;SDS_P2;PMS_P1;PMS_P2;Temp;Humidity;BMP_temperature;BMP_pressure;BME280_temperature;BME280_humidity;BME280_pressure;Samples;Min_cycle;Max_cycle;Signal;HPM_P1;HPM_P2
2022/03/05 04:03:02;;;;;;;1.63;1.53;;;3.00;59.00;;;;;;4953794;29;20493;-75
2022/03/05 04:05:29;;;;;;;1.70;1.60;;;2.90;59.10;;;;;;4954728;29;20930;-74
2022/03/05 04:10:40;;;;;;;2.00;1.90;;;2.90;58.90;;;;;;4952513;29;20902;-75
2022/03/05 04:13:08;;;;;;;1.60;1.50;;;3.00;58.90;;;;;;4935905;29;20558;-76
2022/03/05 04:15:34;;;;;;;1.57;1.47;;;3.00;58.90;;;;;;4994537;23;20493;-67
2022/03/05 04:18:02;;;;;;;1.90;1.80;;;3.00;58.90;;;;;;4993788;28;20437;-68
2022/03/05 04:20:29;;;;;;;1.77;1.67;;;3.00;58.80;;;;;;4996871;28;20456;-68
2022/03/05 04:22:56;;;;;;;1.73;1.63;;;3.00;59.10;;;;;;4996784;28;20448;-68
2022/03/05 04:25:23;;;;;;;1.73;1.63;;;3.00;59.00;;;;;;4986286;28;20469;-68
2022/03/05 04:27:50;;;;;;;1.93;1.77;;;3.00;58.90;;;;;;4977077;28;20486;-68
2022/03/05 04:30:16;;;;;;;1.40;1.30;;;3.00;58.80;;;;;;4977137;28;20454;-68
2022/03/05 04:32:43;;;;;;;1.60;1.50;;;3.00;58.90;;;;;;4977060;28;20505;-69
2022/03/05 04:35:11;;;;;;;1.80;1.70;;;2.90;58.90;;;;;;4976948;28;20466;-70
2022/03/05 04:37:38;;;;;;;1.63;1.53;;;2.80;59.20;;;;;;4976713;28;20926;-70
2022/03/05 04:40:06;;;;;;;1.50;1.40;;;2.80;59.50;;;;;;4976928;28;20450;-70
2022/03/05 04:42:33;;;;;;;1.80;1.70;;;2.80;59.80;;;;;;4976661;28;20435;-70
2022/03/05 04:45:00;;;;;;;1.80;1.70;;;2.80;59.60;;;;;;4976441;28;20995;-70
2022/03/05 04:47:27;;;;;;;1.87;1.77;;;2.70;59.50;;;;;;4976436;28;20485;-69
2022/03/05 04:49:54;;;;;;;1.70;1.60;;;2.70;59.50;;;;;;4976411;28;20941;-70
2022/03/05 04:52:22;;;;;;;1.60;1.50;;;2.70;59.60;;;;;;4976738;28;20853;-70
2022/03/05 04:54:48;;;;;;;1.47;1.37;;;2.70;59.60;;;;;;4976526;28;20478;-70
2022/03/05 04:57:15;;;;;;;1.97;1.87;;;2.60;59.70;;;;;;4976638;28;20449;-70
2022/03/05 04:59:41;;;;;;;1.83;1.73;;;2.60;59.80;;;;;;4976878;28;20450;-70
2022/03/05 05:02:08;;;;;;;1.80;1.70;;;2.60;60.00;;;;;;4976354;28;20582;-70
2022/03/05 05:04:35;;;;;;;2.00;1.90;;;2.60;60.10;;;;;;4976345;28;20478;-70
2022/03/05 05:07:02;;;;;;;1.70;1.60;;;2.60;60.00;;;;;;4976083;28;21021;-70
2022/03/05 05:09:30;;;;;;;1.60;1.50;;;2.60;60.30;;;;;;4976303;28;20485;-70
2022/03/05 05:11:57;;;;;;;1.70;1.60;;;2.60;60.50;;;;;;4976327;28;20480;-70
2022/03/05 05:14:24;;;;;;;1.70;1.60;;;2.50;60.40;;;;;;4975800;28;20557;-70
2022/03/05 05:16:51;;;;;;;1.80;1.70;;;2.50;60.50;;;;;;4976225;28;20495;-68
2022/03/05 05:19:27;;;;;;;1.90;1.80;;;2.50;60.60;;;;;;4975845;28;20445;-69
2022/03/05 05:21:55;;;;;;;1.53;1.43;;;2.50;60.60;;;;;;4976179;28;20853;-69
2022/03/05 05:24:22;;;;;;;1.80;1.70;;;2.50;60.70;;;;;;4976064;28;20525;-69
2022/03/05 05:26:50;;;;;;;1.87;1.77;;;2.50;60.70;;;;;;4976056;28;20647;-69
2022/03/05 05:29:16;;;;;;;1.80;1.70;;;2.50;60.70;;;;;;4975850;28;20532;-69
2022/03/05 05:31:43;;;;;;;1.90;1.80;;;2.50;60.70;;;;;;4975589;28;20450;-69
2022/03/05 05:34:10;;;;;;;1.80;1.70;;;2.50;60.70;;;;;;4975741;28;20450;-70
2022/03/05 05:36:38;;;;;;;2.27;2.07;;;2.40;61.00;;;;;;4975553;28;20942;-69
2022/03/05 05:39:05;;;;;;;1.70;1.60;;;2.40;60.70;;;;;;4975760;28;20454;-69
2022/03/05 05:41:32;;;;;;;1.77;1.67;;;2.40;60.80;;;;;;4975706;28;20557;-69
2022/03/05 05:44:00;;;;;;;1.70;1.60;;;2.40;60.90;;;;;;4975371;28;20791;-69
2022/03/05 05:46:27;;;;;;;2.17;1.97;;;2.40;61.00;;;;;;4975632;28;20532;-69
2022/03/05 05:48:53;;;;;;;2.07;1.97;;;2.40;61.00;;;;;;4975989;28;20477;-69
2022/03/05 05:51:20;;;;;;;1.73;1.63;;;2.40;60.70;;;;;;4975480;28;20450;-69
2022/03/05 05:53:47;;;;;;;1.77;1.67;;;2.40;60.90;;;;;;4975605;28;20504;-69
2022/03/05 05:56:13;;;;;;;2.50;2.40;;;2.40;61.00;;;;;;4975429;28;20465;-69
2022/03/05 05:58:40;;;;;;;1.93;1.83;;;2.40;61.20;;;;;;4975427;28;20446;-69
2022/03/05 06:01:08;;;;;;;1.80;1.70;;;2.30;61.00;;;;;;4975112;28;20861;-70
2022/03/05 06:03:35;;;;;;;1.87;1.77;;;2.30;61.10;;;;;;4975335;28;20525;-69
2022/03/05 06:06:01;;;;;;;1.77;1.67;;;2.30;61.40;;;;;;4975319;28;20577;-69
2022/03/05 06:08:28;;;;;;;1.70;1.60;;;2.30;61.50;;;;;;4975247;28;20528;-69
2022/03/05 06:10:57;;;;;;;2.17;2.07;;;2.40;61.60;;;;;;4974924;28;21004;-69
2022/03/05 06:13:24;;;;;;;2.00;1.90;;;2.40;61.70;;;;;;4975176;28;20448;-69
2022/03/05 06:15:51;;;;;;;1.93;1.83;;;2.40;61.50;;;;;;4974891;28;20985;-69
2022/03/05 06:18:19;;;;;;;2.00;1.90;;;2.40;61.40;;;;;;4975085;28;20450;-69
2022/03/05 06:20:46;;;;;;;1.77;1.67;;;2.50;61.40;;;;;;4975025;28;20446;-68
2022/03/05 06:23:13;;;;;;;1.87;1.77;;;2.60;61.10;;;;;;4975064;28;20454;-69
2022/03/05 06:25:39;;;;;;;1.97;1.87;;;2.80;60.90;;;;;;4974595;28;20481;-69
2022/03/05 06:28:07;;;;;;;2.00;1.90;;;2.90;60.40;;;;;;4974778;28;20450;-69
2022/03/05 06:30:33;;;;;;;2.00;1.90;;;3.00;60.30;;;;;;4975045;28;20477;-69
2022/03/05 06:33:00;;;;;;;1.90;1.80;;;3.50;60.20;;;;;;4974789;28;20516;-69
2022/03/05 06:35:28;;;;;;;1.93;1.60;;;4.50;58.30;;;;;;4974407;28;20902;-69
2022/03/05 06:37:55;;;;;;;2.00;1.90;;;5.90;55.10;;;;;;4974736;28;20533;-70
2022/03/05 06:40:22;;;;;;;1.80;1.70;;;7.30;51.80;;;;;;4974782;28;20508;-70
2022/03/05 06:42:49;;;;;;;1.43;1.33;;;8.40;49.40;;;;;;4974727;28;20450;-70
2022/03/05 06:45:15;;;;;;;1.97;1.87;;;9.60;46.90;;;;;;4974660;28;20501;-70
2022/03/05 06:47:42;;;;;;;1.83;1.70;;;11.00;44.60;;;;;;4974485;28;20937;-70
2022/03/05 06:50:11;;;;;;;1.90;1.80;;;12.10;42.30;;;;;;4974730;28;20520;-70
2022/03/05 06:52:40;;;;;;;1.90;1.50;;;13.20;40.30;;;;;;4974694;28;20548;-70
2022/03/05 06:55:08;;;;;;;1.60;1.50;;;14.30;38.50;;;;;;4974746;28;20475;-70
2022/03/05 06:57:35;;;;;;;2.10;2.00;;;15.30;36.80;;;;;;4974746;28;20460;-70
2022/03/05 07:00:01;;;;;;;1.80;1.70;;;16.00;35.80;;;;;;4974767;28;20457;-70
2022/03/05 07:02:28;;;;;;;2.10;1.90;;;16.80;34.70;;;;;;4974774;28;20453;-70
2022/03/05 07:04:55;;;;;;;1.70;1.60;;;17.60;33.60;;;;;;4974706;28;20470;-69
2022/03/05 07:07:21;;;;;;;1.87;1.77;;;18.30;32.40;;;;;;4974455;28;21012;-70
2022/03/05 07:09:50;;;;;;;1.97;1.87;;;18.90;31.80;;;;;;4974714;28;20886;-70
2022/03/05 07:12:17;;;;;;;1.77;1.67;;;19.40;31.20;;;;;;4974416;28;21016;-71
2022/03/05 07:14:48;;;;;;;1.70;1.60;;;19.80;30.30;;;;;;4974453;28;20556;-70
2022/03/05 07:17:15;;;;;;;1.77;1.67;;;20.20;30.10;;;;;;4974394;28;20815;-70
2022/03/05 07:19:42;;;;;;;1.73;1.63;;;20.80;29.60;;;;;;4974582;28;20442;-71
2022/03/05 07:22:09;;;;;;;1.93;1.83;;;20.90;29.10;;;;;;4974627;28;20445;-71
2022/03/05 07:24:36;;;;;;;2.03;1.83;;;21.10;29.10;;;;;;4974549;28;20470;-71
2022/03/05 07:27:05;;;;;;;1.80;1.70;;;21.40;28.80;;;;;;4974599;28;20521;-71
2022/03/05 07:29:31;;;;;;;2.00;1.90;;;21.90;28.20;;;;;;4974517;28;20481;-71
2022/03/05 07:31:58;;;;;;;2.10;2.00;;;21.30;28.40;;;;;;4974301;28;21011;-70
2022/03/05 07:34:26;;;;;;;2.00;1.90;;;21.60;28.20;;;;;;4974433;28;20513;-71
2022/03/05 07:36:52;;;;;;;1.77;1.67;;;21.00;28.90;;;;;;4974226;28;20888;-70
2022/03/05 07:39:19;;;;;;;1.70;1.60;;;21.20;28.60;;;;;;4974455;28;20446;-70
2022/03/05 07:41:46;;;;;;;2.00;1.90;;;21.40;28.60;;;;;;4976156;28;20875;-70
2022/03/05 07:44:14;;;;;;;2.07;1.97;;;21.90;28.20;;;;;;4976464;28;20942;-71
2022/03/05 07:46:41;;;;;;;2.00;1.90;;;22.30;27.70;;;;;;4976939;28;20454;-70
2022/03/05 07:49:08;;;;;;;2.07;1.97;;;21.40;27.70;;;;;;4976021;28;20485;-70
2022/03/05 07:51:37;;;;;;;1.83;1.73;;;19.50;30.00;;;;;;4976564;28;20457;-70
2022/03/05 07:54:04;;;;;;;1.70;1.60;;;19.10;31.20;;;;;;4978913;28;20478;-71
2022/03/05 07:56:31;;;;;;;1.93;1.83;;;19.30;30.60;;;;;;4980516;28;20847;-70
2022/03/05 07:58:57;;;;;;;2.00;1.90;;;17.80;32.00;;;;;;4979698;28;20461;-71
2022/03/05 08:01:25;;;;;;;1.97;1.87;;;17.00;33.70;;;;;;4979815;28;20453;-70
2022/03/05 08:03:52;;;;;;;1.90;1.80;;;17.60;33.10;;;;;;4979040;28;20938;-70
2022/03/05 08:06:19;;;;;;;1.90;1.80;;;16.40;34.10;;;;;;4979782;28;20474;-70
2022/03/05 08:08:46;;;;;;;2.00;1.90;;;14.90;36.20;;;;;;4979738;28;20502;-70
2022/03/05 08:11:12;;;;;;;1.80;1.70;;;14.20;37.40;;;;;;4978927;28;20540;-70
2022/03/05 08:13:39;;;;;;;2.00;1.90;;;12.80;39.50;;;;;;4977902;28;20449;-70
2022/03/05 08:16:06;;;;;;;2.37;2.17;;;11.10;42.70;;;;;;4977435;28;20477;-70
2022/03/05 08:18:34;;;;;;;2.13;2.03;;;10.50;43.90;;;;;;4977489;28;20945;-70
2022/03/05 08:21:01;;;;;;;1.80;1.70;;;9.60;45.60;;;;;;4977330;28;20953;-70
2022/03/05 08:23:27;;;;;;;2.30;2.20;;;8.60;47.30;;;;;;4977423;28;20545;-71
2022/03/05 08:25:54;;;;;;;1.70;1.60;;;8.50;48.60;;;;;;4977567;28;20839;-70
2022/03/05 08:28:22;;;;;;;2.60;2.40;;;8.10;49.00;;;;;;4977664;28;20878;-71
2022/03/05 08:30:49;;;;;;;1.90;1.80;;;7.60;50.30;;;;;;4977500;28;20481;-71
2022/03/05 08:33:17;;;;;;;2.40;2.30;;;7.30;51.40;;;;;;4977560;28;20482;-71
2022/03/05 08:35:45;;;;;;;2.23;2.13;;;7.00;52.20;;;;;;4977420;28;20473;-71
2022/03/05 08:38:11;;;;;;;2.30;2.20;;;6.70;52.60;;;;;;4977065;28;20988;-70
2022/03/05 08:40:39;;;;;;;2.30;2.20;;;6.40;53.70;;;;;;4977299;28;20462;-70
2022/03/05 08:43:05;;;;;;;2.27;2.17;;;6.10;54.40;;;;;;4977065;28;20864;-70
2022/03/05 08:45:32;;;;;;;2.37;2.27;;;6.10;54.70;;;;;;4977226;28;20524;-70
2022/03/05 08:47:59;;;;;;;2.13;2.00;;;5.70;55.50;;;;;;4977244;28;20450;-69
2022/03/05 08:50:26;;;;;;;2.03;1.93;;;5.50;56.30;;;;;;4976865;28;21035;-69
2022/03/05 08:52:54;;;;;;;3.00;2.80;;;5.40;56.70;;;;;;4977205;28;20450;-70
2022/03/05 08:55:20;;;;;;;2.23;2.13;;;5.50;57.40;;;;;;4977110;28;20469;-69
2022/03/05 08:57:47;;;;;;;2.13;2.03;;;5.50;56.90;;;;;;4976753;28;20874;-70
2022/03/05 09:00:16;;;;;;;2.20;2.10;;;5.40;56.50;;;;;;4976775;28;20497;-69
2022/03/05 09:02:43;;;;;;;2.10;2.00;;;5.30;57.20;;;;;;4976937;28;20455;-70
2022/03/05 09:05:10;;;;;;;2.00;1.90;;;5.40;57.40;;;;;;4975688;28;20498;-70
2022/03/05 09:07:37;;;;;;;2.20;2.10;;;5.40;57.30;;;;;;4976912;28;20458;-70
2022/03/05 09:10:06;;;;;;;1.93;1.83;;;5.40;56.80;;;;;;4976677;28;20536;-69
2022/03/05 09:12:33;;;;;;;2.33;2.20;;;5.40;57.00;;;;;;4976800;28;20508;-69
2022/03/05 09:15:00;;;;;;;2.30;2.20;;;5.40;56.80;;;;;;4976414;28;20513;-71
2022/03/05 09:17:27;;;;;;;2.27;2.17;;;5.30;57.20;;;;;;4976653;28;20467;-70
2022/03/05 09:19:54;;;;;;;2.03;1.93;;;5.20;58.10;;;;;;4976662;28;20450;-71
2022/03/05 09:22:20;;;;;;;2.07;1.97;;;5.40;57.70;;;;;;4976356;28;20999;-69
2022/03/05 09:24:47;;;;;;;2.03;1.93;;;5.60;56.90;;;;;;4976564;28;20469;-71
2022/03/05 09:27:15;;;;;;;2.10;2.00;;;5.50;56.50;;;;;;4976190;28;20446;-70
2022/03/05 09:29:42;;;;;;;1.90;1.80;;;5.40;56.10;;;;;;4976415;28;20489;-69
2022/03/05 09:32:09;;;;;;;2.00;1.90;;;5.40;56.90;;;;;;4976380;28;20442;-70
2022/03/05 09:34:36;;;;;;;1.53;1.43;;;5.40;56.80;;;;;;4976436;28;20553;-70
2022/03/05 09:37:04;;;;;;;2.13;2.03;;;5.30;55.80;;;;;;4976263;28;20482;-69
2022/03/05 09:39:31;;;;;;;2.07;1.97;;;5.30;56.70;;;;;;4976013;28;20840;-70
2022/03/05 09:41:58;;;;;;;2.10;2.00;;;5.50;57.20;;;;;;4976309;28;20516;-70
2022/03/05 09:44:26;;;;;;;1.80;1.70;;;5.60;56.50;;;;;;4976192;28;20505;-70
2022/03/05 09:46:54;;;;;;;2.10;2.00;;;5.50;54.90;;;;;;4976201;28;20446;-70
2022/03/05 09:49:21;;;;;;;2.30;2.20;;;5.70;54.80;;;;;;4975978;28;20482;-70
2022/03/05 09:51:48;;;;;;;1.93;1.80;;;5.50;55.10;;;;;;4976837;28;20450;-70
2022/03/05 09:54:14;;;;;;;2.00;1.90;;;5.10;56.10;;;;;;4975983;28;20462;-69
2022/03/05 09:56:41;;;;;;;2.20;2.10;;;5.20;57.00;;;;;;4975999;28;20453;-69
2022/03/05 09:59:08;;;;;;;1.83;1.73;;;5.40;56.10;;;;;;4976072;28;20501;-70
2022/03/05 10:01:37;;;;;;;1.87;1.77;;;5.50;55.20;;;;;;4977791;28;20457;-70
2022/03/05 10:04:04;;;;;;;2.37;2.17;;;5.50;55.90;;;;;;4976998;28;20457;-70
2022/03/05 10:06:31;;;;;;;2.00;1.80;;;5.40;55.50;;;;;;4975493;28;21000;-70
2022/03/05 10:08:58;;;;;;;2.30;2.10;;;5.40;56.10;;;;;;4975758;28;20464;-70
2022/03/05 10:11:37;;;;;;;2.10;2.00;;;5.60;55.80;;;;;;4975833;28;20486;-70
2022/03/05 10:14:15;;;;;;;2.17;2.07;;;5.30;55.30;;;;;;4975679;28;20556;-70
2022/03/05 10:16:43;;;;;;;2.10;2.00;;;5.30;55.50;;;;;;4976769;28;20434;-69
2022/03/05 10:19:17;;;;;;;1.77;1.67;;;5.50;55.50;;;;;;4975544;28;20809;-71
2022/03/05 10:21:57;;;;;;;1.83;1.73;;;5.90;55.80;;;;;;4975516;28;20796;-70
2022/03/05 10:24:31;;;;;;;1.83;1.73;;;6.00;53.50;;;;;;4975450;28;20434;-70
2022/03/05 10:26:59;;;;;;;1.90;1.80;;;5.90;53.30;;;;;;4975379;28;20440;-69
2022/03/05 10:29:27;;;;;;;1.70;1.60;;;6.00;53.80;;;;;;4975219;28;20872;-70
2022/03/05 10:32:01;;;;;;;1.67;1.57;;;6.00;54.30;;;;;;4975224;28;20505;-69
2022/03/05 10:34:28;;;;;;;1.70;1.60;;;6.10;52.40;;;;;;4975131;28;20840;-71
2022/03/05 10:36:59;;;;;;;1.70;1.60;;;6.00;52.30;;;;;;4974880;28;20881;-70
2022/03/05 10:39:27;;;;;;;1.90;1.40;;;6.10;52.40;;;;;;4974685;28;20506;-70
2022/03/05 10:41:55;;;;;;;1.53;1.43;;;5.90;52.00;;;;;;4975105;28;20532;-70
2022/03/05 10:44:22;;;;;;;1.67;1.57;;;6.00;52.00;;;;;;4974879;28;20533;-71
2022/03/05 10:46:56;;;;;;;1.80;1.70;;;6.20;51.50;;;;;;4974952;28;20450;-69
2022/03/05 10:49:26;;;;;;;1.63;1.53;;;6.30;50.80;;;;;;4974868;28;20442;-70
2022/03/05 10:52:05;;;;;;;1.33;1.23;;;6.40;51.10;;;;;;4974877;28;20821;-70
2022/03/05 10:54:35;;;;;;;1.50;1.40;;;6.40;50.60;;;;;;4974833;28;20469;-70
2022/03/05 10:57:08;;;;;;;1.30;1.20;;;6.40;50.80;;;;;;4974747;28;20485;-69
2022/03/05 10:59:36;;;;;;;1.57;1.47;;;6.50;48.90;;;;;;4974836;28;20426;-70
2022/03/05 11:02:02;;;;;;;1.50;1.40;;;6.60;48.60;;;;;;4974679;28;20454;-70
2022/03/05 11:04:32;;;;;;;1.70;1.60;;;6.60;48.50;;;;;;4974765;28;20554;-70
2022/03/05 11:06:59;;;;;;;1.53;1.43;;;6.60;49.30;;;;;;4974834;28;20521;-69
2022/03/05 11:09:28;;;;;;;1.23;1.13;;;6.50;48.40;;;;;;4974803;28;20509;-70
2022/03/05 11:11:55;;;;;;;1.20;1.10;;;6.40;48.70;;;;;;4974686;28;20826;-70
2022/03/05 11:14:22;;;;;;;1.30;1.20;;;6.20;48.70;;;;;;4974524;28;20456;-70
2022/03/05 11:16:49;;;;;;;1.00;0.90;;;6.40;48.10;;;;;;4974778;28;20509;-69
2022/03/05 11:19:16;;;;;;;1.40;1.30;;;6.30;47.50;;;;;;4974687;28;20810;-70
2022/03/05 11:21:44;;;;;;;1.17;1.07;;;6.40;48.20;;;;;;4974635;28;20457;-70
2022/03/05 11:24:14;;;;;;;1.37;1.27;;;6.40;47.50;;;;;;4974492;28;20450;-71
2022/03/05 11:26:41;;;;;;;1.50;1.40;;;6.60;48.10;;;;;;4974566;28;20438;-70
2022/03/05 11:29:08;;;;;;;1.80;1.10;;;6.80;48.00;;;;;;4973721;28;20505;-70
2022/03/05 11:31:35;;;;;;;1.23;1.13;;;6.70;46.30;;;;;;4974631;28;20486;-70
2022/03/05 11:34:13;;;;;;;1.20;1.10;;;6.80;46.10;;;;;;4974280;28;20442;-70
2022/03/05 11:36:40;;;;;;;1.50;1.40;;;6.90;46.10;;;;;;4974515;28;20484;-71
2022/03/05 11:39:17;;;;;;;1.23;1.13;;;7.20;47.80;;;;;;4974362;28;20450;-71
2022/03/05 11:42:09;;;;;;;1.40;1.30;;;7.40;48.50;;;;;;4974098;28;20434;-70
2022/03/05 11:44:41;;;;;;;1.37;1.27;;;7.40;46.40;;;;;;4955658;28;20837;-70
2022/03/05 11:47:28;;;;;;;1.40;1.30;;;7.40;45.70;;;;;;4974503;28;20434;-70
2022/03/05 11:50:17;;;;;;;1.30;1.10;;;7.40;44.90;;;;;;4974327;28;20485;-70
2022/03/05 11:53:07;;;;;;;1.40;1.30;;;7.10;45.20;;;;;;4974388;28;20442;-70
2022/03/05 11:55:41;;;;;;;1.60;1.50;;;7.00;46.80;;;;;;4974250;28;20477;-70
2022/03/05 11:58:36;;;;;;;1.23;1.13;;;7.00;46.10;;;;;;4974431;28;20440;-71
2022/03/05 12:01:32;;;;;;;1.20;1.10;;;7.40;45.20;;;;;;4975094;28;20427;-70
2022/03/05 12:04:03;;;;;;;1.00;0.90;;;7.80;44.20;;;;;;4975670;28;20509;-71
2022/03/05 12:06:42;;;;;;;1.20;1.10;;;7.70;43.60;;;;;;4977583;28;20844;-70
2022/03/05 12:09:32;;;;;;;1.30;1.20;;;7.60;42.40;;;;;;4975991;28;20430;-70
2022/03/05 12:12:01;;;;;;;1.63;1.20;;;7.30;43.30;;;;;;4976540;28;20497;-70
2022/03/05 12:15:05;;;;;;;1.40;1.30;;;7.40;44.30;;;;;;4976266;28;20490;-69
2022/03/05 12:17:34;;;;;;;1.50;1.40;;;7.80;43.80;;;;;;4975760;28;20449;-70
2022/03/05 12:20:01;;;;;;;1.10;1.00;;;7.90;43.50;;;;;;4976469;28;20499;-70
2022/03/05 12:22:28;;;;;;;1.37;1.27;;;8.20;43.80;;;;;;4976045;28;20456;-70
2022/03/05 12:24:54;;;;;;;1.47;1.37;;;8.50;42.40;;;;;;4975724;28;20474;-70
2022/03/05 12:27:25;;;;;;;1.40;1.30;;;8.30;42.10;;;;;;4975724;28;20450;-70
2022/03/05 12:29:53;;;;;;;1.23;1.13;;;8.40;42.10;;;;;;4975555;28;20486;-70
2022/03/05 12:32:21;;;;;;;1.13;1.03;;;8.30;42.20;;;;;;4976802;28;20449;-70
2022/03/05 12:34:48;;;;;;;1.30;1.20;;;8.10;42.70;;;;;;4976045;28;20485;-70
2022/03/05 12:37:17;;;;;;;1.30;1.20;;;8.00;43.80;;;;;;4976053;28;20454;-71
2022/03/05 12:39:44;;;;;;;1.30;1.20;;;8.40;42.60;;;;;;4977311;28;20794;-70
2022/03/05 12:42:11;;;;;;;1.33;1.23;;;8.60;42.50;;;;;;4979511;28;20452;-70
2022/03/05 12:44:41;;;;;;;1.20;1.10;;;8.40;42.40;;;;;;4979412;28;20484;-71
2022/03/05 12:47:08;;;;;;;1.40;1.30;;;8.40;42.80;;;;;;4979303;28;20446;-70
2022/03/05 12:49:35;;;;;;;1.30;1.20;;;8.40;43.40;;;;;;4979133;28;20450;-70
2022/03/05 12:52:02;;;;;;;1.30;1.20;;;8.50;42.70;;;;;;4979263;28;20486;-70
2022/03/05 12:54:28;;;;;;;1.20;1.10;;;8.70;42.20;;;;;;4979229;28;20483;-70
2022/03/05 12:56:56;;;;;;;1.30;1.20;;;8.80;41.70;;;;;;4978174;28;20450;-70
2022/03/05 12:59:22;;;;;;;1.30;1.03;;;9.00;42.50;;;;;;4978097;28;20956;-71
2022/03/05 13:01:51;;;;;;;1.30;1.20;;;8.70;42.20;;;;;;4978432;28;20449;-69
2022/03/05 13:04:18;;;;;;;1.53;1.43;;;9.10;41.80;;;;;;4978520;28;20457;-70
2022/03/05 13:06:46;;;;;;;1.40;1.30;;;9.10;41.00;;;;;;4977859;28;20450;-70
2022/03/05 13:09:15;;;;;;;1.47;1.37;;;8.80;41.20;;;;;;4977585;28;20712;-71
2022/03/05 13:11:42;;;;;;;1.27;1.17;;;8.60;41.80;;;;;;4977671;28;20513;-70
2022/03/05 13:14:09;;;;;;;1.40;1.30;;;8.90;41.20;;;;;;4977762;28;20473;-71
2022/03/05 13:16:41;;;;;;;1.40;1.20;;;9.10;40.70;;;;;;4978278;28;20473;-70
2022/03/05 13:19:11;;;;;;;1.40;1.30;;;9.10;40.40;;;;;;4978982;28;20514;-70
2022/03/05 13:21:39;;;;;;;1.40;1.30;;;9.30;40.90;;;;;;4980563;28;20541;-69
2022/03/05 13:24:07;;;;;;;1.20;1.10;;;9.50;41.20;;;;;;4979646;28;20458;-70
2022/03/05 13:26:34;;;;;;;1.47;1.37;;;9.70;40.40;;;;;;4979510;28;20450;-70
2022/03/05 13:29:01;;;;;;;1.20;1.10;;;9.50;40.30;;;;;;4980312;28;20505;-70
2022/03/05 13:31:28;;;;;;;1.40;1.30;;;9.20;40.40;;;;;;4979782;28;20482;-70
2022/03/05 13:33:55;;;;;;;1.40;1.30;;;9.30;41.30;;;;;;4979425;28;20477;-71
2022/03/05 13:36:25;;;;;;;1.37;1.27;;;9.80;40.60;;;;;;4979556;28;20477;-71
2022/03/05 13:38:54;;;;;;;1.37;1.27;;;10.10;39.40;;;;;;4979174;28;20450;-71
2022/03/05 13:41:25;;;;;;;1.27;1.17;;;9.80;39.80;;;;;;4979546;28;20450;-70
2022/03/05 13:43:51;;;;;;;1.33;1.23;;;9.80;40.40;;;;;;4979445;28;20493;-71
2022/03/05 13:46:20;;;;;;;1.30;1.20;;;9.70;40.30;;;;;;4979182;28;21000;-70
2022/03/05 13:48:49;;;;;;;1.70;1.60;;;10.00;39.60;;;;;;4979194;28;20469;-71
2022/03/05 13:51:18;;;;;;;1.27;1.17;;;10.20;40.00;;;;;;4978294;28;20493;-71
2022/03/05 13:53:49;;;;;;;1.37;1.27;;;10.40;39.70;;;;;;4978899;28;20450;-71
2022/03/05 13:56:16;;;;;;;1.30;1.20;;;10.60;38.50;;;;;;4978433;28;20476;-71
2022/03/05 13:58:43;;;;;;;1.33;1.23;;;10.90;37.70;;;;;;4976952;28;20461;-71
2022/03/05 14:01:15;;;;;;;1.30;1.20;;;11.60;37.50;;;;;;4975970;28;20500;-71
2022/03/05 14:04:05;;;;;;;1.20;1.10;;;12.50;35.90;;;;;;4975925;28;20501;-71
2022/03/05 14:06:31;;;;;;;1.53;1.43;;;13.70;34.60;;;;;;4975870;28;20438;-70
2022/03/05 14:09:01;;;;;;;1.33;1.23;;;14.50;33.50;;;;;;4975852;28;20453;-71
2022/03/05 14:11:28;;;;;;;1.37;1.27;;;15.00;32.20;;;;;;4975721;28;20478;-71
2022/03/05 14:13:55;;;;;;;1.30;1.20;;;15.20;32.10;;;;;;4975670;28;20445;-70
2022/03/05 14:16:34;;;;;;;1.30;1.20;;;15.80;31.70;;;;;;4975323;28;20485;-71
2022/03/05 14:19:00;;;;;;;1.40;1.30;;;16.00;31.30;;;;;;4975571;28;20476;-70
2022/03/05 14:21:27;;;;;;;1.30;1.20;;;16.40;30.00;;;;;;4975230;28;20861;-72
2022/03/05 14:23:54;;;;;;;1.20;1.00;;;16.60;30.80;;;;;;4975626;28;20505;-71
2022/03/05 14:26:32;;;;;;;1.47;1.37;;;17.30;29.80;;;;;;4975476;28;20477;-72
2022/03/05 14:28:58;;;;;;;1.33;1.23;;;17.40;29.40;;;;;;4975801;28;20438;-70
2022/03/05 14:31:25;;;;;;;1.00;0.90;;;17.10;29.20;;;;;;4975387;28;20481;-70
2022/03/05 14:33:52;;;;;;;1.10;1.00;;;17.10;29.80;;;;;;4975501;28;20446;-71
2022/03/05 14:36:19;;;;;;;1.10;1.00;;;17.50;29.20;;;;;;4975225;28;20478;-71
2022/03/05 14:38:45;;;;;;;1.20;1.10;;;17.90;28.50;;;;;;4975246;28;20537;-70
2022/03/05 14:41:13;;;;;;;2.70;1.20;;;17.90;28.80;;;;;;4975261;28;20449;-70
2022/03/05 14:43:41;;;;;;;1.20;1.10;;;17.90;28.90;;;;;;4975482;28;20493;-70
2022/03/05 14:46:08;;;;;;;1.10;1.00;;;18.00;29.00;;;;;;4975472;28;20474;-72
2022/03/05 14:48:35;;;;;;;1.33;1.23;;;18.40;28.20;;;;;;4976843;28;20449;-71
2022/03/05 14:51:01;;;;;;;1.33;1.23;;;18.10;28.60;;;;;;4976906;28;20889;-70
2022/03/05 14:53:28;;;;;;;1.10;1.00;;;17.90;28.60;;;;;;4976032;28;20969;-70
2022/03/05 14:55:55;;;;;;;1.30;1.20;;;17.90;29.20;;;;;;4975750;28;20474;-71
2022/03/05 14:58:21;;;;;;;1.50;1.20;;;17.90;28.60;;;;;;4976078;28;20504;-71
2022/03/05 15:00:49;;;;;;;1.30;1.20;;;18.00;28.60;;;;;;4976216;28;20465;-71
2022/03/05 15:03:16;;;;;;;1.40;1.30;;;18.40;28.60;;;;;;4975317;28;20824;-71
2022/03/05 15:05:43;;;;;;;1.10;1.00;;;18.60;28.10;;;;;;4976013;28;20481;-71
2022/03/05 15:08:10;;;;;;;1.33;1.23;;;17.60;28.20;;;;;;4977135;28;20476;-70
2022/03/05 15:10:37;;;;;;;1.20;1.10;;;16.90;28.90;;;;;;4978131;28;20964;-69
2022/03/05 15:13:04;;;;;;;1.30;1.20;;;16.00;30.00;;;;;;4977305;28;21144;-72
2022/03/05 15:15:31;;;;;;;1.10;1.00;;;15.80;31.10;;;;;;4976357;28;20485;-70
2022/03/05 15:17:59;;;;;;;1.10;1.00;;;16.10;30.60;;;;;;4974607;28;20458;-70
2022/03/05 15:20:27;;;;;;;1.20;1.10;;;15.90;30.40;;;;;;4974732;28;20833;-71
2022/03/05 15:22:53;;;;;;;1.10;1.00;;;15.40;30.50;;;;;;4974319;28;20445;-71
2022/03/05 15:25:20;;;;;;;1.30;1.20;;;14.70;31.30;;;;;;4974517;28;20470;-71
2022/03/05 15:27:47;;;;;;;1.13;1.03;;;14.60;31.60;;;;;;4974526;28;20442;-72
2022/03/05 15:30:14;;;;;;;1.17;1.07;;;14.60;31.90;;;;;;4974528;28;20476;-71
2022/03/05 15:32:41;;;;;;;1.23;1.13;;;14.50;32.00;;;;;;4974157;28;20490;-71
2022/03/05 15:35:09;;;;;;;1.13;0.97;;;14.60;32.00;;;;;;4974306;28;20470;-71
2022/03/05 15:37:36;;;;;;;1.10;1.00;;;14.10;32.40;;;;;;4974417;28;20442;-71
2022/03/05 15:40:04;;;;;;;1.30;1.20;;;13.70;33.00;;;;;;4974432;28;20446;-71
2022/03/05 15:42:31;;;;;;;1.10;1.00;;;13.60;33.10;;;;;;4974397;28;20449;-70
2022/03/05 15:44:57;;;;;;;1.50;1.40;;;13.40;33.30;;;;;;4974265;28;20533;-71
2022/03/05 15:47:24;;;;;;;1.10;1.00;;;12.90;33.90;;;;;;4974302;28;20453;-70
2022/03/05 15:49:50;;;;;;;1.00;0.87;;;12.60;34.30;;;;;;4974190;28;20450;-71
2022/03/05 15:52:18;;;;;;;1.30;1.20;;;12.20;34.70;;;;;;4974655;28;20482;-69
2022/03/05 15:54:45;;;;;;;1.30;1.20;;;11.80;35.30;;;;;;4974072;28;20470;-71
2022/03/05 15:57:12;;;;;;;1.27;1.17;;;11.40;35.50;;;;;;4973923;28;20950;-71
2022/03/05 15:59:38;;;;;;;1.10;0.93;;;11.00;36.00;;;;;;4973859;28;20450;-71
2022/03/05 16:02:05;;;;;;;1.10;1.00;;;10.70;36.50;;;;;;4973911;28;20505;-71
2022/03/05 16:04:32;;;;;;;1.23;1.10;;;10.40;36.80;;;;;;4974158;28;20514;-71
2022/03/05 16:06:58;;;;;;;1.13;1.00;;;10.10;37.40;;;;;;4974124;28;20453;-71
2022/03/05 16:09:26;;;;;;;1.20;1.10;;;9.90;38.10;;;;;;4974172;28;20453;-70
2022/03/05 16:11:53;;;;;;;1.10;1.00;;;9.70;38.40;;;;;;4974121;28;20485;-70
2022/03/05 16:14:20;;;;;;;1.00;0.90;;;9.40;38.80;;;;;;4975027;28;20853;-71
2022/03/05 16:16:46;;;;;;;1.13;1.03;;;9.40;39.00;;;;;;5110402;23;20552;-75
2022/03/05 16:19:13;;;;;;;1.13;1.03;;;9.30;39.10;;;;;;4997429;28;20447;-75
2022/03/05 16:21:40;;;;;;;1.20;1.00;;;9.20;39.10;;;;;;4997048;28;20934;-75
2022/03/05 16:24:08;;;;;;;1.20;1.10;;;9.20;39.20;;;;;;4997788;28;20457;-74
2022/03/05 16:26:36;;;;;;;1.50;1.03;;;9.10;39.20;;;;;;4982071;28;20465;-74
2022/03/05 16:29:04;;;;;;;1.40;1.30;;;9.00;39.60;;;;;;4977643;28;20442;-74
2022/03/05 16:31:31;;;;;;;1.20;1.10;;;8.50;40.50;;;;;;4977576;28;20532;-75
2022/03/05 16:33:57;;;;;;;1.43;1.33;;;8.40;41.00;;;;;;4977189;28;20454;-75
2022/03/05 16:36:25;;;;;;;1.10;1.00;;;8.40;40.90;;;;;;4977567;28;20469;-75
2022/03/05 16:38:52;;;;;;;1.30;1.20;;;8.30;41.00;;;;;;4977490;28;20454;-74
2022/03/05 16:41:19;;;;;;;1.57;1.47;;;8.10;41.40;;;;;;4977390;28;20449;-74
2022/03/05 16:43:47;;;;;;;1.17;1.00;;;7.90;41.70;;;;;;4977224;28;21021;-75
2022/03/05 16:46:14;;;;;;;1.30;1.20;;;8.00;41.60;;;;;;4977259;28;20473;-75
2022/03/05 16:48:43;;;;;;;1.27;1.17;;;7.90;41.80;;;;;;4977307;28;20532;-75
2022/03/05 16:51:10;;;;;;;1.27;1.17;;;8.10;41.70;;;;;;4977222;28;20554;-74
2022/03/05 16:53:37;;;;;;;1.60;1.50;;;8.10;41.90;;;;;;4977264;28;20450;-75
2022/03/05 16:56:04;;;;;;;1.57;1.47;;;8.00;41.90;;;;;;4977051;28;20473;-75
2022/03/05 16:58:31;;;;;;;1.40;1.30;;;8.00;42.00;;;;;;4977221;28;20458;-75
2022/03/05 17:00:59;;;;;;;1.40;1.20;;;7.80;42.30;;;;;;4976817;28;20872;-75
2022/03/05 17:03:25;;;;;;;1.40;1.30;;;7.60;42.70;;;;;;4977168;28;20454;-75